sensor_id;sensor_type;location;lat;lon;timestamp;P1;durP1;ratioP1;P2;durP2;ratioP2
12493;SDS011;8260;51.422;6.786;2022-09-09T00:01:49;4.50;;;1.50;;
12493;SDS011;8260;51.422;6.786;2022-09-09T00:04:24;3.15;;;1.38;;
12493;SDS011;8260;51.422;6.786;2022-09-09T00:06:56;5.15;;;1.70;;
12493;SDS011;8260;51.422;6.786;2022-09-09T00:09:26;5.65;;;1.27;;
12493;SDS011;8260;51.422;6.786;2022-09-09T00:11:58;4.15;;;1.40;;
12493;SDS011;8260;51.422;6.786;2022-09-09T00:14:33;2.33;;;1.35;;
12493;SDS011;8260;51.422;6.786;2022-09-09T00:17:04;1.40;;;1.25;;
12493;SDS011;8260;51.422;6.786;2022-09-09T00:19:37;2.85;;;1.33;;
12493;SDS011;8260;51.422;6.786;2022-09-09T00:22:12;1.60;;;1.50;;
12493;SDS011;8260;51.422;6.786;2022-09-09T00:24:43;2.33;;;1.58;;
12493;SDS011;8260;51.422;6.786;2022-09-09T00:27:15;4.68;;;1.70;;
12493;SDS011;8260;51.422;6.786;2022-09-09T00:29:45;3.58;;;1.70;;
12493;SDS011;8260;51.422;6.786;2022-09-09T00:32:16;2.05;;;1.50;;
12493;SDS011;8260;51.422;6.786;2022-09-09T00:34:48;1.65;;;1.40;;
12493;SDS011;8260;51.422;6.786;2022-09-09T00:37:18;5.78;;;1.75;;
12493;SDS011;8260;51.422;6.786;2022-09-09T00:39:47;1.80;;;1.50;;
12493;SDS011;8260;51.422;6.786;2022-09-09T00:42:19;3.72;;;1.52;;
12493;SDS011;8260;51.422;6.786;2022-09-09T00:44:56;4.38;;;1.58;;
12493;SDS011;8260;51.422;6.786;2022-09-09T00:47:32;3.20;;;1.67;;
12493;SDS011;8260;51.422;6.786;2022-09-09T00:50:08;3.33;;;1.60;;
12493;SDS011;8260;51.422;6.786;2022-09-09T00:52:39;2.35;;;1.63;;
12493;SDS011;8260;51.422;6.786;2022-09-09T00:55:12;3.95;;;1.90;;
12493;SDS011;8260;51.422;6.786;2022-09-09T00:57:45;2.63;;;1.67;;
12493;SDS011;8260;51.422;6.786;2022-09-09T01:00:21;2.17;;;1.60;;
12493;SDS011;8260;51.422;6.786;2022-09-09T01:02:59;3.63;;;2.00;;
12493;SDS011;8260;51.422;6.786;2022-09-09T01:05:36;2.13;;;1.60;;
12493;SDS011;8260;51.422;6.786;2022-09-09T01:08:11;1.58;;;1.48;;
12493;SDS011;8260;51.422;6.786;2022-09-09T01:10:44;4.50;;;1.70;;
12493;SDS011;8260;51.422;6.786;2022-09-09T01:13:17;2.30;;;1.70;;
12493;SDS011;8260;51.422;6.786;2022-09-09T01:15:47;3.17;;;1.60;;
12493;SDS011;8260;51.422;6.786;2022-09-09T01:18:17;4.50;;;1.60;;
12493;SDS011;8260;51.422;6.786;2022-09-09T01:20:52;2.63;;;1.80;;
12493;SDS011;8260;51.422;6.786;2022-09-09T01:23:30;2.22;;;1.88;;
12493;SDS011;8260;51.422;6.786;2022-09-09T01:26:07;2.78;;;1.50;;
12493;SDS011;8260;51.422;6.786;2022-09-09T01:28:38;1.75;;;1.40;;
12493;SDS011;8260;51.422;6.786;2022-09-09T01:31:07;1.88;;;1.65;;
12493;SDS011;8260;51.422;6.786;2022-09-09T01:33:37;2.65;;;1.73;;
12493;SDS011;8260;51.422;6.786;2022-09-09T01:36:06;2.35;;;1.60;;
12493;SDS011;8260;51.422;6.786;2022-09-09T01:38:36;2.92;;;1.80;;
12493;SDS011;8260;51.422;6.786;2022-09-09T01:41:06;2.17;;;1.77;;
12493;SDS011;8260;51.422;6.786;2022-09-09T01:43:34;2.17;;;1.70;;
12493;SDS011;8260;51.422;6.786;2022-09-09T01:46:03;2.75;;;1.77;;
12493;SDS011;8260;51.422;6.786;2022-09-09T01:48:31;2.22;;;1.85;;
12493;SDS011;8260;51.422;6.786;2022-09-09T01:51:00;4.10;;;1.80;;
12493;SDS011;8260;51.422;6.786;2022-09-09T01:53:29;2.35;;;1.75;;
12493;SDS011;8260;51.422;6.786;2022-09-09T01:56:02;1.90;;;1.70;;
12493;SDS011;8260;51.422;6.786;2022-09-09T01:58:37;2.40;;;1.60;;
12493;SDS011;8260;51.422;6.786;2022-09-09T02:01:11;2.38;;;1.60;;
12493;SDS011;8260;51.422;6.786;2022-09-09T02:03:43;2.97;;;1.70;;
12493;SDS011;8260;51.422;6.786;2022-09-09T02:06:14;2.55;;;2.28;;
12493;SDS011;8260;51.422;6.786;2022-09-09T02:08:43;4.82;;;1.88;;
12493;SDS011;8260;51.422;6.786;2022-09-09T02:11:14;5.70;;;1.73;;
12493;SDS011;8260;51.422;6.786;2022-09-09T02:13:45;2.92;;;1.98;;
12493;SDS011;8260;51.422;6.786;2022-09-09T02:16:15;4.00;;;1.98;;
12493;SDS011;8260;51.422;6.786;2022-09-09T02:18:48;3.38;;;1.98;;
12493;SDS011;8260;51.422;6.786;2022-09-09T02:21:18;2.97;;;1.65;;
12493;SDS011;8260;51.422;6.786;2022-09-09T02:23:48;3.53;;;2.05;;
12493;SDS011;8260;51.422;6.786;2022-09-09T02:26:18;2.08;;;1.88;;
12493;SDS011;8260;51.422;6.786;2022-09-09T02:28:51;4.05;;;2.05;;
12493;SDS011;8260;51.422;6.786;2022-09-09T02:31:21;5.43;;;2.17;;
12493;SDS011;8260;51.422;6.786;2022-09-09T02:33:51;2.67;;;2.05;;
12493;SDS011;8260;51.422;6.786;2022-09-09T02:36:20;2.92;;;1.73;;
12493;SDS011;8260;51.422;6.786;2022-09-09T02:38:50;3.28;;;1.80;;
12493;SDS011;8260;51.422;6.786;2022-09-09T02:41:20;4.40;;;1.90;;
12493;SDS011;8260;51.422;6.786;2022-09-09T02:43:51;3.78;;;1.98;;
12493;SDS011;8260;51.422;6.786;2022-09-09T02:46:26;7.32;;;2.53;;
12493;SDS011;8260;51.422;6.786;2022-09-09T02:48:59;4.43;;;2.22;;
12493;SDS011;8260;51.422;6.786;2022-09-09T02:51:30;5.75;;;2.60;;
12493;SDS011;8260;51.422;6.786;2022-09-09T02:54:04;3.42;;;2.40;;
12493;SDS011;8260;51.422;6.786;2022-09-09T02:56:38;4.18;;;2.30;;
12493;SDS011;8260;51.422;6.786;2022-09-09T02:59:08;7.22;;;2.10;;
12493;SDS011;8260;51.422;6.786;2022-09-09T03:01:37;3.15;;;1.98;;
12493;SDS011;8260;51.422;6.786;2022-09-09T03:04:06;3.78;;;2.22;;
12493;SDS011;8260;51.422;6.786;2022-09-09T03:06:35;3.47;;;2.20;;
12493;SDS011;8260;51.422;6.786;2022-09-09T03:09:04;4.65;;;2.55;;
12493;SDS011;8260;51.422;6.786;2022-09-09T03:11:34;4.28;;;1.88;;
12493;SDS011;8260;51.422;6.786;2022-09-09T03:14:02;4.20;;;2.28;;
12493;SDS011;8260;51.422;6.786;2022-09-09T03:16:32;3.30;;;1.90;;
12493;SDS011;8260;51.422;6.786;2022-09-09T03:19:00;5.63;;;2.20;;
12493;SDS011;8260;51.422;6.786;2022-09-09T03:21:29;4.82;;;2.40;;
12493;SDS011;8260;51.422;6.786;2022-09-09T03:23:58;3.72;;;2.40;;
12493;SDS011;8260;51.422;6.786;2022-09-09T03:26:26;4.68;;;2.40;;
12493;SDS011;8260;51.422;6.786;2022-09-09T03:28:55;4.90;;;2.67;;
12493;SDS011;8260;51.422;6.786;2022-09-09T03:31:23;3.88;;;2.50;;
12493;SDS011;8260;51.422;6.786;2022-09-09T03:33:53;5.72;;;2.60;;
12493;SDS011;8260;51.422;6.786;2022-09-09T03:36:22;4.10;;;2.33;;
12493;SDS011;8260;51.422;6.786;2022-09-09T03:38:50;3.58;;;2.30;;
12493;SDS011;8260;51.422;6.786;2022-09-09T03:41:19;4.15;;;2.22;;
12493;SDS011;8260;51.422;6.786;2022-09-09T03:43:50;3.17;;;2.50;;
12493;SDS011;8260;51.422;6.786;2022-09-09T03:46:19;3.78;;;2.33;;
12493;SDS011;8260;51.422;6.786;2022-09-09T03:48:47;5.43;;;2.50;;
12493;SDS011;8260;51.422;6.786;2022-09-09T03:51:17;4.00;;;2.17;;
12493;SDS011;8260;51.422;6.786;2022-09-09T03:53:46;3.67;;;2.20;;
12493;SDS011;8260;51.422;6.786;2022-09-09T03:56:14;6.15;;;2.40;;
12493;SDS011;8260;51.422;6.786;2022-09-09T03:58:43;4.22;;;2.63;;
12493;SDS011;8260;51.422;6.786;2022-09-09T04:01:11;5.50;;;2.75;;
12493;SDS011;8260;51.422;6.786;2022-09-09T04:03:40;4.97;;;2.72;;
12493;SDS011;8260;51.422;6.786;2022-09-09T04:06:09;4.53;;;2.80;;
12493;SDS011;8260;51.422;6.786;2022-09-09T04:08:41;3.75;;;2.45;;
12493;SDS011;8260;51.422;6.786;2022-09-09T04:11:11;2.80;;;2.22;;
12493;SDS011;8260;51.422;6.786;2022-09-09T04:13:40;6.85;;;2.78;;
12493;SDS011;8260;51.422;6.786;2022-09-09T04:16:09;6.88;;;2.60;;
12493;SDS011;8260;51.422;6.786;2022-09-09T04:18:37;3.65;;;2.45;;
12493;SDS011;8260;51.422;6.786;2022-09-09T04:21:06;3.63;;;2.40;;
12493;SDS011;8260;51.422;6.786;2022-09-09T04:23:35;5.03;;;2.67;;
12493;SDS011;8260;51.422;6.786;2022-09-09T04:26:05;4.95;;;2.40;;
12493;SDS011;8260;51.422;6.786;2022-09-09T04:28:34;3.42;;;2.35;;
12493;SDS011;8260;51.422;6.786;2022-09-09T04:31:06;5.32;;;3.13;;
12493;SDS011;8260;51.422;6.786;2022-09-09T04:33:35;5.18;;;2.60;;
12493;SDS011;8260;51.422;6.786;2022-09-09T04:36:06;5.05;;;2.50;;
12493;SDS011;8260;51.422;6.786;2022-09-09T04:38:35;3.80;;;2.40;;
12493;SDS011;8260;51.422;6.786;2022-09-09T04:41:05;5.07;;;2.85;;
12493;SDS011;8260;51.422;6.786;2022-09-09T04:43:34;3.35;;;2.08;;
12493;SDS011;8260;51.422;6.786;2022-09-09T04:46:03;4.40;;;2.80;;
12493;SDS011;8260;51.422;6.786;2022-09-09T04:48:32;5.82;;;2.58;;
12493;SDS011;8260;51.422;6.786;2022-09-09T04:51:02;5.75;;;3.22;;
12493;SDS011;8260;51.422;6.786;2022-09-09T04:53:31;6.03;;;2.65;;
12493;SDS011;8260;51.422;6.786;2022-09-09T04:56:05;4.57;;;2.58;;
12493;SDS011;8260;51.422;6.786;2022-09-09T04:58:34;6.07;;;2.72;;
12493;SDS011;8260;51.422;6.786;2022-09-09T05:01:03;3.55;;;2.15;;
12493;SDS011;8260;51.422;6.786;2022-09-09T05:03:32;6.03;;;2.33;;
12493;SDS011;8260;51.422;6.786;2022-09-09T05:06:07;4.85;;;3.13;;
12493;SDS011;8260;51.422;6.786;2022-09-09T05:08:36;9.15;;;2.88;;
12493;SDS011;8260;51.422;6.786;2022-09-09T05:11:13;5.95;;;2.65;;
12493;SDS011;8260;51.422;6.786;2022-09-09T05:13:43;4.82;;;3.13;;
12493;SDS011;8260;51.422;6.786;2022-09-09T05:16:11;6.13;;;2.80;;
12493;SDS011;8260;51.422;6.786;2022-09-09T05:18:40;6.75;;;3.00;;
12493;SDS011;8260;51.422;6.786;2022-09-09T05:21:09;5.95;;;2.95;;
12493;SDS011;8260;51.422;6.786;2022-09-09T05:23:37;6.40;;;2.97;;
12493;SDS011;8260;51.422;6.786;2022-09-09T05:26:07;5.97;;;2.90;;
12493;SDS011;8260;51.422;6.786;2022-09-09T05:28:43;8.27;;;3.00;;
12493;SDS011;8260;51.422;6.786;2022-09-09T05:31:12;6.85;;;3.08;;
12493;SDS011;8260;51.422;6.786;2022-09-09T05:33:42;6.35;;;2.60;;
12493;SDS011;8260;51.422;6.786;2022-09-09T05:36:12;4.85;;;2.95;;
12493;SDS011;8260;51.422;6.786;2022-09-09T05:38:41;5.35;;;2.90;;
12493;SDS011;8260;51.422;6.786;2022-09-09T05:41:09;9.73;;;3.40;;
12493;SDS011;8260;51.422;6.786;2022-09-09T05:43:38;7.72;;;3.17;;
12493;SDS011;8260;51.422;6.786;2022-09-09T05:46:12;5.25;;;2.90;;
12493;SDS011;8260;51.422;6.786;2022-09-09T05:48:41;6.22;;;3.22;;
12493;SDS011;8260;51.422;6.786;2022-09-09T05:51:10;8.45;;;3.47;;
12493;SDS011;8260;51.422;6.786;2022-09-09T05:53:41;5.88;;;2.50;;
12493;SDS011;8260;51.422;6.786;2022-09-09T05:56:11;3.75;;;2.45;;
12493;SDS011;8260;51.422;6.786;2022-09-09T05:58:40;7.93;;;3.00;;
12493;SDS011;8260;51.422;6.786;2022-09-09T06:01:11;6.40;;;3.03;;
12493;SDS011;8260;51.422;6.786;2022-09-09T06:03:41;6.65;;;3.30;;
12493;SDS011;8260;51.422;6.786;2022-09-09T06:06:10;6.72;;;2.92;;
12493;SDS011;8260;51.422;6.786;2022-09-09T06:08:40;5.95;;;2.70;;
12493;SDS011;8260;51.422;6.786;2022-09-09T06:11:10;6.93;;;3.15;;
12493;SDS011;8260;51.422;6.786;2022-09-09T06:13:38;7.25;;;2.50;;
12493;SDS011;8260;51.422;6.786;2022-09-09T06:16:07;5.90;;;2.65;;
12493;SDS011;8260;51.422;6.786;2022-09-09T06:18:39;9.30;;;3.38;;
12493;SDS011;8260;51.422;6.786;2022-09-09T06:21:09;8.88;;;3.05;;
12493;SDS011;8260;51.422;6.786;2022-09-09T06:23:38;6.45;;;2.95;;
12493;SDS011;8260;51.422;6.786;2022-09-09T06:26:09;8.75;;;2.75;;
12493;SDS011;8260;51.422;6.786;2022-09-09T06:28:38;9.55;;;2.78;;
12493;SDS011;8260;51.422;6.786;2022-09-09T06:31:09;3.67;;;2.92;;
12493;SDS011;8260;51.422;6.786;2022-09-09T06:33:40;9.40;;;3.75;;
12493;SDS011;8260;51.422;6.786;2022-09-09T06:36:10;5.72;;;2.80;;
12493;SDS011;8260;51.422;6.786;2022-09-09T06:38:39;6.10;;;2.75;;
12493;SDS011;8260;51.422;6.786;2022-09-09T06:41:08;7.80;;;2.75;;
12493;SDS011;8260;51.422;6.786;2022-09-09T06:43:37;9.23;;;3.30;;
12493;SDS011;8260;51.422;6.786;2022-09-09T06:46:05;6.50;;;2.90;;
12493;SDS011;8260;51.422;6.786;2022-09-09T06:48:35;7.68;;;3.08;;
12493;SDS011;8260;51.422;6.786;2022-09-09T06:51:06;6.72;;;2.78;;
12493;SDS011;8260;51.422;6.786;2022-09-09T06:53:35;6.47;;;3.67;;
12493;SDS011;8260;51.422;6.786;2022-09-09T06:56:17;6.07;;;2.60;;
12493;SDS011;8260;51.422;6.786;2022-09-09T06:58:46;10.73;;;3.17;;
12493;SDS011;8260;51.422;6.786;2022-09-09T07:01:15;7.60;;;2.60;;
12493;SDS011;8260;51.422;6.786;2022-09-09T07:03:45;10.13;;;3.33;;
12493;SDS011;8260;51.422;6.786;2022-09-09T07:06:18;6.30;;;2.47;;
12493;SDS011;8260;51.422;6.786;2022-09-09T07:08:50;6.88;;;2.42;;
12493;SDS011;8260;51.422;6.786;2022-09-09T07:11:23;8.07;;;2.85;;
12493;SDS011;8260;51.422;6.786;2022-09-09T07:13:52;7.53;;;2.47;;
12493;SDS011;8260;51.422;6.786;2022-09-09T07:16:21;9.82;;;2.25;;
12493;SDS011;8260;51.422;6.786;2022-09-09T07:18:51;7.97;;;2.20;;
12493;SDS011;8260;51.422;6.786;2022-09-09T07:21:25;9.23;;;2.45;;
12493;SDS011;8260;51.422;6.786;2022-09-09T07:23:54;9.07;;;2.30;;
12493;SDS011;8260;51.422;6.786;2022-09-09T07:26:23;7.45;;;2.38;;
12493;SDS011;8260;51.422;6.786;2022-09-09T07:28:52;5.85;;;2.03;;
12493;SDS011;8260;51.422;6.786;2022-09-09T07:31:22;6.15;;;2.30;;
12493;SDS011;8260;51.422;6.786;2022-09-09T07:33:52;6.25;;;2.30;;
12493;SDS011;8260;51.422;6.786;2022-09-09T07:36:22;8.35;;;2.15;;
12493;SDS011;8260;51.422;6.786;2022-09-09T07:39:00;5.97;;;2.42;;
12493;SDS011;8260;51.422;6.786;2022-09-09T07:41:30;5.38;;;2.40;;
12493;SDS011;8260;51.422;6.786;2022-09-09T07:44:03;6.18;;;1.90;;
12493;SDS011;8260;51.422;6.786;2022-09-09T07:46:33;7.03;;;2.40;;
12493;SDS011;8260;51.422;6.786;2022-09-09T07:49:02;5.57;;;2.08;;
12493;SDS011;8260;51.422;6.786;2022-09-09T07:51:31;7.25;;;2.30;;
12493;SDS011;8260;51.422;6.786;2022-09-09T07:54:01;5.90;;;1.98;;
12493;SDS011;8260;51.422;6.786;2022-09-09T07:56:30;7.32;;;2.22;;
12493;SDS011;8260;51.422;6.786;2022-09-09T07:58:59;7.78;;;2.55;;
12493;SDS011;8260;51.422;6.786;2022-09-09T08:01:28;6.63;;;2.10;;
12493;SDS011;8260;51.422;6.786;2022-09-09T08:03:58;4.80;;;1.83;;
12493;SDS011;8260;51.422;6.786;2022-09-09T08:06:27;6.22;;;2.08;;
12493;SDS011;8260;51.422;6.786;2022-09-09T08:08:56;6.25;;;1.95;;
12493;SDS011;8260;51.422;6.786;2022-09-09T08:11:26;7.40;;;1.75;;
12493;SDS011;8260;51.422;6.786;2022-09-09T08:13:55;5.88;;;1.80;;
12493;SDS011;8260;51.422;6.786;2022-09-09T08:16:28;6.32;;;2.20;;
12493;SDS011;8260;51.422;6.786;2022-09-09T08:18:57;5.82;;;1.92;;
12493;SDS011;8260;51.422;6.786;2022-09-09T08:21:26;5.90;;;1.80;;
12493;SDS011;8260;51.422;6.786;2022-09-09T08:23:55;3.75;;;1.73;;
12493;SDS011;8260;51.422;6.786;2022-09-09T08:26:26;5.13;;;1.80;;
12493;SDS011;8260;51.422;6.786;2022-09-09T08:28:55;7.43;;;1.65;;
12493;SDS011;8260;51.422;6.786;2022-09-09T08:31:25;5.75;;;1.70;;
12493;SDS011;8260;51.422;6.786;2022-09-09T08:33:54;5.45;;;1.73;;
12493;SDS011;8260;51.422;6.786;2022-09-09T08:36:23;7.25;;;1.90;;
12493;SDS011;8260;51.422;6.786;2022-09-09T08:38:54;5.88;;;1.83;;
12493;SDS011;8260;51.422;6.786;2022-09-09T08:41:37;7.78;;;1.77;;
12493;SDS011;8260;51.422;6.786;2022-09-09T08:44:07;4.03;;;1.70;;
12493;SDS011;8260;51.422;6.786;2022-09-09T08:46:41;5.57;;;1.65;;
12493;SDS011;8260;51.422;6.786;2022-09-09T08:49:14;3.28;;;1.63;;
12493;SDS011;8260;51.422;6.786;2022-09-09T08:51:44;6.03;;;2.00;;
12493;SDS011;8260;51.422;6.786;2022-09-09T08:54:12;7.00;;;2.13;;
12493;SDS011;8260;51.422;6.786;2022-09-09T08:57:02;5.38;;;1.90;;
12493;SDS011;8260;51.422;6.786;2022-09-09T08:59:31;3.33;;;1.70;;
12493;SDS011;8260;51.422;6.786;2022-09-09T09:02:01;6.22;;;1.88;;
12493;SDS011;8260;51.422;6.786;2022-09-09T09:04:37;4.80;;;1.48;;
12493;SDS011;8260;51.422;6.786;2022-09-09T09:07:13;4.60;;;1.70;;
12493;SDS011;8260;51.422;6.786;2022-09-09T09:09:45;4.10;;;1.67;;
12493;SDS011;8260;51.422;6.786;2022-09-09T09:12:17;3.58;;;1.65;;
12493;SDS011;8260;51.422;6.786;2022-09-09T09:14:46;6.90;;;2.45;;
12493;SDS011;8260;51.422;6.786;2022-09-09T09:17:16;5.68;;;1.20;;
12493;SDS011;8260;51.422;6.786;2022-09-09T09:19:46;4.53;;;1.67;;
12493;SDS011;8260;51.422;6.786;2022-09-09T09:22:16;6.70;;;1.70;;
12493;SDS011;8260;51.422;6.786;2022-09-09T09:24:49;7.13;;;1.70;;
12493;SDS011;8260;51.422;6.786;2022-09-09T09:27:24;6.63;;;1.83;;
12493;SDS011;8260;51.422;6.786;2022-09-09T09:29:54;7.50;;;1.83;;
12493;SDS011;8260;51.422;6.786;2022-09-09T09:32:47;3.85;;;1.70;;
12493;SDS011;8260;51.422;6.786;2022-09-09T09:35:17;4.45;;;1.30;;
12493;SDS011;8260;51.422;6.786;2022-09-09T09:37:46;5.72;;;1.73;;
12493;SDS011;8260;51.422;6.786;2022-09-09T09:40:35;3.75;;;1.52;;
12493;SDS011;8260;51.422;6.786;2022-09-09T09:43:15;8.07;;;1.98;;
12493;SDS011;8260;51.422;6.786;2022-09-09T09:45:45;4.20;;;1.60;;
12493;SDS011;8260;51.422;6.786;2022-09-09T09:48:34;5.10;;;1.70;;
12493;SDS011;8260;51.422;6.786;2022-09-09T09:51:03;5.53;;;1.83;;
12493;SDS011;8260;51.422;6.786;2022-09-09T09:53:34;5.63;;;2.05;;
12493;SDS011;8260;51.422;6.786;2022-09-09T09:56:05;4.38;;;1.70;;
12493;SDS011;8260;51.422;6.786;2022-09-09T09:58:37;4.75;;;1.60;;
12493;SDS011;8260;51.422;6.786;2022-09-09T10:01:18;4.43;;;1.90;;
12493;SDS011;8260;51.422;6.786;2022-09-09T10:03:49;6.90;;;1.80;;
12493;SDS011;8260;51.422;6.786;2022-09-09T10:06:28;5.80;;;1.80;;
12493;SDS011;8260;51.422;6.786;2022-09-09T10:08:57;3.90;;;1.63;;
12493;SDS011;8260;51.422;6.786;2022-09-09T10:11:28;3.78;;;1.50;;
12493;SDS011;8260;51.422;6.786;2022-09-09T10:14:03;3.13;;;1.52;;
12493;SDS011;8260;51.422;6.786;2022-09-09T10:16:37;4.32;;;1.17;;
12493;SDS011;8260;51.422;6.786;2022-09-09T10:19:09;4.57;;;1.45;;
12493;SDS011;8260;51.422;6.786;2022-09-09T10:21:48;3.60;;;1.60;;
12493;SDS011;8260;51.422;6.786;2022-09-09T10:24:27;4.25;;;1.60;;
12493;SDS011;8260;51.422;6.786;2022-09-09T10:27:00;4.82;;;1.33;;
12493;SDS011;8260;51.422;6.786;2022-09-09T10:29:34;3.03;;;1.30;;
12493;SDS011;8260;51.422;6.786;2022-09-09T10:32:15;3.15;;;1.35;;
12493;SDS011;8260;51.422;6.786;2022-09-09T10:34:57;2.67;;;1.25;;
12493;SDS011;8260;51.422;6.786;2022-09-09T10:37:33;4.28;;;1.42;;
12493;SDS011;8260;51.422;6.786;2022-09-09T10:40:05;3.95;;;1.50;;
12493;SDS011;8260;51.422;6.786;2022-09-09T10:42:39;3.45;;;1.33;;
12493;SDS011;8260;51.422;6.786;2022-09-09T10:45:15;2.72;;;1.30;;
12493;SDS011;8260;51.422;6.786;2022-09-09T10:47:52;3.22;;;1.40;;
12493;SDS011;8260;51.422;6.786;2022-09-09T10:50:28;3.65;;;1.45;;
12493;SDS011;8260;51.422;6.786;2022-09-09T10:53:20;5.80;;;1.73;;
12493;SDS011;8260;51.422;6.786;2022-09-09T10:55:52;2.67;;;1.67;;
12493;SDS011;8260;51.422;6.786;2022-09-09T10:58:22;5.03;;;1.60;;
12493;SDS011;8260;51.422;6.786;2022-09-09T11:00:54;5.03;;;1.30;;
12493;SDS011;8260;51.422;6.786;2022-09-09T11:03:26;3.58;;;1.45;;
12493;SDS011;8260;51.422;6.786;2022-09-09T11:05:57;3.20;;;1.50;;
12493;SDS011;8260;51.422;6.786;2022-09-09T11:08:28;4.20;;;1.55;;
12493;SDS011;8260;51.422;6.786;2022-09-09T11:10:58;5.05;;;1.40;;
12493;SDS011;8260;51.422;6.786;2022-09-09T11:13:30;5.95;;;1.42;;
12493;SDS011;8260;51.422;6.786;2022-09-09T11:16:05;3.10;;;1.50;;
12493;SDS011;8260;51.422;6.786;2022-09-09T11:18:40;6.50;;;1.85;;
12493;SDS011;8260;51.422;6.786;2022-09-09T11:21:12;4.78;;;1.92;;
12493;SDS011;8260;51.422;6.786;2022-09-09T11:23:44;4.63;;;1.80;;
12493;SDS011;8260;51.422;6.786;2022-09-09T11:26:14;3.45;;;1.50;;
12493;SDS011;8260;51.422;6.786;2022-09-09T11:28:49;2.63;;;1.40;;
12493;SDS011;8260;51.422;6.786;2022-09-09T11:31:32;4.60;;;1.33;;
12493;SDS011;8260;51.422;6.786;2022-09-09T11:34:07;2.22;;;1.35;;
12493;SDS011;8260;51.422;6.786;2022-09-09T11:36:42;3.35;;;1.40;;
12493;SDS011;8260;51.422;6.786;2022-09-09T11:39:18;8.38;;;1.48;;
12493;SDS011;8260;51.422;6.786;2022-09-09T11:41:51;5.72;;;1.30;;
12493;SDS011;8260;51.422;6.786;2022-09-09T11:44:26;3.70;;;1.27;;
12493;SDS011;8260;51.422;6.786;2022-09-09T11:46:57;4.72;;;1.40;;
12493;SDS011;8260;51.422;6.786;2022-09-09T11:49:27;3.53;;;1.65;;
12493;SDS011;8260;51.422;6.786;2022-09-09T11:51:57;5.57;;;1.23;;
12493;SDS011;8260;51.422;6.786;2022-09-09T11:54:28;2.95;;;1.20;;
12493;SDS011;8260;51.422;6.786;2022-09-09T11:56:56;1.33;;;0.90;;
12493;SDS011;8260;51.422;6.786;2022-09-09T11:59:25;4.05;;;1.30;;
12493;SDS011;8260;51.422;6.786;2022-09-09T12:01:55;2.10;;;1.00;;
12493;SDS011;8260;51.422;6.786;2022-09-09T12:04:32;2.75;;;1.38;;
12493;SDS011;8260;51.422;6.786;2022-09-09T12:07:02;2.85;;;1.08;;
12493;SDS011;8260;51.422;6.786;2022-09-09T12:09:45;3.35;;;1.30;;
12493;SDS011;8260;51.422;6.786;2022-09-09T12:12:25;2.15;;;1.33;;
12493;SDS011;8260;51.422;6.786;2022-09-09T12:14:55;3.47;;;1.27;;
12493;SDS011;8260;51.422;6.786;2022-09-09T12:17:26;5.82;;;1.05;;
12493;SDS011;8260;51.422;6.786;2022-09-09T12:20:06;2.58;;;0.95;;
12493;SDS011;8260;51.422;6.786;2022-09-09T12:22:39;2.38;;;1.10;;
12493;SDS011;8260;51.422;6.786;2022-09-09T12:25:16;5.53;;;1.20;;
12493;SDS011;8260;51.422;6.786;2022-09-09T12:27:51;5.07;;;1.27;;
12493;SDS011;8260;51.422;6.786;2022-09-09T12:30:28;1.50;;;1.00;;
12493;SDS011;8260;51.422;6.786;2022-09-09T12:33:01;3.85;;;1.30;;
12493;SDS011;8260;51.422;6.786;2022-09-09T12:35:31;4.28;;;1.60;;
12493;SDS011;8260;51.422;6.786;2022-09-09T12:38:00;6.07;;;1.42;;
12493;SDS011;8260;51.422;6.786;2022-09-09T12:40:30;3.20;;;1.77;;
12493;SDS011;8260;51.422;6.786;2022-09-09T12:43:01;3.35;;;1.70;;
12493;SDS011;8260;51.422;6.786;2022-09-09T12:45:31;3.95;;;1.90;;
12493;SDS011;8260;51.422;6.786;2022-09-09T12:48:03;4.03;;;2.35;;
12493;SDS011;8260;51.422;6.786;2022-09-09T12:50:34;5.75;;;2.97;;
12493;SDS011;8260;51.422;6.786;2022-09-09T12:53:06;5.57;;;3.38;;
12493;SDS011;8260;51.422;6.786;2022-09-09T12:55:36;7.55;;;4.18;;
12493;SDS011;8260;51.422;6.786;2022-09-09T12:58:05;7.07;;;3.90;;
12493;SDS011;8260;51.422;6.786;2022-09-09T13:00:34;6.45;;;3.08;;
12493;SDS011;8260;51.422;6.786;2022-09-09T13:03:13;5.03;;;3.13;;
12493;SDS011;8260;51.422;6.786;2022-09-09T13:05:44;5.13;;;2.08;;
12493;SDS011;8260;51.422;6.786;2022-09-09T13:08:13;3.50;;;2.28;;
12493;SDS011;8260;51.422;6.786;2022-09-09T13:10:43;3.92;;;2.08;;
12493;SDS011;8260;51.422;6.786;2022-09-09T13:13:25;4.75;;;2.72;;
12493;SDS011;8260;51.422;6.786;2022-09-09T13:15:56;8.20;;;3.70;;
12493;SDS011;8260;51.422;6.786;2022-09-09T13:18:27;7.30;;;4.00;;
12493;SDS011;8260;51.422;6.786;2022-09-09T13:20:57;7.13;;;3.90;;
12493;SDS011;8260;51.422;6.786;2022-09-09T13:23:27;6.05;;;3.60;;
12493;SDS011;8260;51.422;6.786;2022-09-09T13:25:57;6.30;;;2.92;;
12493;SDS011;8260;51.422;6.786;2022-09-09T13:28:26;5.88;;;2.90;;
12493;SDS011;8260;51.422;6.786;2022-09-09T13:30:59;5.28;;;2.95;;
12493;SDS011;8260;51.422;6.786;2022-09-09T13:33:30;5.63;;;2.97;;
12493;SDS011;8260;51.422;6.786;2022-09-09T13:36:01;5.53;;;2.40;;
12493;SDS011;8260;51.422;6.786;2022-09-09T13:38:32;6.43;;;2.20;;
12493;SDS011;8260;51.422;6.786;2022-09-09T13:41:01;2.65;;;2.08;;
12493;SDS011;8260;51.422;6.786;2022-09-09T13:43:31;4.95;;;2.40;;
12493;SDS011;8260;51.422;6.786;2022-09-09T13:46:03;4.55;;;1.83;;
12493;SDS011;8260;51.422;6.786;2022-09-09T13:48:32;6.00;;;2.95;;
12493;SDS011;8260;51.422;6.786;2022-09-09T13:51:02;8.85;;;2.42;;
12493;SDS011;8260;51.422;6.786;2022-09-09T13:53:32;6.40;;;1.88;;
12493;SDS011;8260;51.422;6.786;2022-09-09T13:56:00;2.25;;;1.70;;
12493;SDS011;8260;51.422;6.786;2022-09-09T13:58:29;3.53;;;2.13;;
12493;SDS011;8260;51.422;6.786;2022-09-09T14:00:57;3.70;;;1.80;;
12493;SDS011;8260;51.422;6.786;2022-09-09T14:03:26;2.33;;;1.58;;
12493;SDS011;8260;51.422;6.786;2022-09-09T14:05:54;3.38;;;1.80;;
12493;SDS011;8260;51.422;6.786;2022-09-09T14:08:25;5.68;;;1.90;;
12493;SDS011;8260;51.422;6.786;2022-09-09T14:11:03;6.45;;;1.90;;
12493;SDS011;8260;51.422;6.786;2022-09-09T14:13:32;4.85;;;2.00;;
12493;SDS011;8260;51.422;6.786;2022-09-09T14:16:00;5.18;;;1.52;;
12493;SDS011;8260;51.422;6.786;2022-09-09T14:18:29;4.22;;;1.48;;
12493;SDS011;8260;51.422;6.786;2022-09-09T14:20:57;2.65;;;1.60;;
12493;SDS011;8260;51.422;6.786;2022-09-09T14:23:27;5.97;;;1.80;;
12493;SDS011;8260;51.422;6.786;2022-09-09T14:25:56;6.93;;;1.77;;
12493;SDS011;8260;51.422;6.786;2022-09-09T14:28:25;5.20;;;2.20;;
12493;SDS011;8260;51.422;6.786;2022-09-09T14:31:14;3.47;;;1.88;;
12493;SDS011;8260;51.422;6.786;2022-09-09T14:33:43;4.03;;;1.70;;
12493;SDS011;8260;51.422;6.786;2022-09-09T14:36:12;3.13;;;1.90;;
12493;SDS011;8260;51.422;6.786;2022-09-09T14:38:42;4.53;;;2.65;;
12493;SDS011;8260;51.422;6.786;2022-09-09T14:41:11;5.63;;;1.85;;
12493;SDS011;8260;51.422;6.786;2022-09-09T14:43:40;1.70;;;1.20;;
12493;SDS011;8260;51.422;6.786;2022-09-09T14:46:10;2.08;;;1.05;;
12493;SDS011;8260;51.422;6.786;2022-09-09T14:48:39;1.33;;;1.10;;
12493;SDS011;8260;51.422;6.786;2022-09-09T14:51:08;3.33;;;1.20;;
12493;SDS011;8260;51.422;6.786;2022-09-09T14:53:36;1.15;;;1.05;;
12493;SDS011;8260;51.422;6.786;2022-09-09T14:56:07;1.75;;;1.00;;
12493;SDS011;8260;51.422;6.786;2022-09-09T14:58:36;4.13;;;1.17;;
12493;SDS011;8260;51.422;6.786;2022-09-09T15:01:05;1.83;;;1.00;;
12493;SDS011;8260;51.422;6.786;2022-09-09T15:03:34;4.50;;;1.08;;
12493;SDS011;8260;51.422;6.786;2022-09-09T15:06:06;3.30;;;1.30;;
12493;SDS011;8260;51.422;6.786;2022-09-09T15:08:35;2.53;;;1.48;;
12493;SDS011;8260;51.422;6.786;2022-09-09T15:11:10;3.03;;;2.40;;
12493;SDS011;8260;51.422;6.786;2022-09-09T15:13:39;8.02;;;3.40;;
12493;SDS011;8260;51.422;6.786;2022-09-09T15:16:09;5.35;;;2.75;;
12493;SDS011;8260;51.422;6.786;2022-09-09T15:18:38;3.75;;;2.33;;
12493;SDS011;8260;51.422;6.786;2022-09-09T15:21:09;2.08;;;1.85;;
12493;SDS011;8260;51.422;6.786;2022-09-09T15:23:37;3.72;;;1.90;;
12493;SDS011;8260;51.422;6.786;2022-09-09T15:26:06;3.33;;;1.60;;